Time,TemperatureF,DewpointF,PressureIn,WindDirection,WindDirectionDegrees,WindSpeedMPH,WindSpeedGustMPH,Humidity,HourlyPrecipIn,Conditions,Clouds,dailyrainin,SoftwareType,DateUTC
2013-05-20 00:00:00,73.5,68.4,29.96,SE,135,1.9,6.2,84,0.00,,BKN040,0.00,VWS V13.01,2013-05-19 14:00:00,
2013-05-20 00:15:00,73.4,67.9,29.96,SE,135,3.1,8.7,83,0.00,,BKN040,0.00,VWS V13.01,2013-05-19 14:15:00,
2013-05-20 00:30:00,73.6,68.1,29.96,SE,135,1.9,7.5,83,0.00,,BKN040,0.00,VWS V13.01,2013-05-19 14:30:00,
2013-05-20 00:45:00,73.6,68.1,29.95,SE,135,1.9,7.5,83,0.00,,BKN040,0.00,VWS V13.01,2013-05-19 14:45:00,
2013-05-20 01:00:00,73.6,68.1,29.95,SE,135,1.9,5.0,83,0.00,,BKN040,0.00,VWS V13.01,2013-05-19 15:00:00,
2013-05-20 01:15:00,73.6,68.1,29.95,SE,135,1.9,6.2,83,0.00,,BKN040,0.00,VWS V13.01,2013-05-19 15:15:00,
2013-05-20 01:30:00,73.7,67.9,29.94,SE,135,1.9,7.5,82,0.00,,BKN040,0.00,VWS V13.01,2013-05-19 15:30:00,
2013-05-20 01:45:00,73.9,68.1,29.94,SE,135,1.9,5.0,82,0.00,,BKN040,0.00,VWS V13.01,2013-05-19 15:45:00,
2013-05-20 02:00:00,74.0,68.2,29.94,SE,135,1.9,5.0,82,0.00,,BKN040,0.00,VWS V13.01,2013-05-19 16:00:00,
2013-05-20 02:15:00,73.9,67.7,29.94,SE,135,1.9,3.8,81,0.00,,BKN040,0.00,VWS V13.01,2013-05-19 16:15:00,
2013-05-20 02:30:00,73.9,67.7,29.94,SE,135,1.9,3.8,81,0.00,,BKN040,0.00,VWS V13.01,2013-05-19 16:30:00,
2013-05-20 02:45:00,73.8,68.0,29.94,SE,135,1.9,3.8,82,0.00,,BKN040,0.00,VWS V13.01,2013-05-19 16:45:00,
2013-05-20 03:00:00,73.7,67.9,29.94,SE,135,1.9,5.0,82,0.00,,BKN040,0.00,VWS V13.01,2013-05-19 17:00:00,
2013-05-20 03:15:00,73.7,67.9,29.94,SE,135,1.9,3.8,82,0.00,,BKN040,0.00,VWS V13.01,2013-05-19 17:15:00,
2013-05-20 03:30:00,73.7,67.5,29.94,SE,135,1.9,3.8,81,0.00,,BKN040,0.00,VWS V13.01,2013-05-19 17:30:00,
2013-05-20 03:45:00,73.7,67.5,29.94,SE,135,1.9,5.0,81,0.00,,BKN040,0.00,VWS V13.01,2013-05-19 17:45:00,
2013-05-20 04:00:00,73.7,67.5,29.95,SE,135,1.9,5.0,81,0.00,,BKN040,0.00,VWS V13.01,2013-05-19 18:00:00,
2013-05-20 04:15:00,73.4,67.6,29.95,SE,135,1.9,3.8,82,0.00,,BKN040,0.00,VWS V13.01,2013-05-19 18:15:00,
2013-05-20 04:30:00,73.2,67.4,29.95,SE,135,1.9,3.8,82,0.00,,BKN040,0.00,VWS V13.01,2013-05-19 18:30:00,
2013-05-20 04:45:00,73.0,67.5,29.94,SE,135,0.6,1.3,83,0.00,,BKN040,0.00,VWS V13.01,2013-05-19 18:45:00,
2013-05-20 05:00:00,72.8,67.3,29.94,SE,135,0.6,2.5,83,0.00,,BKN040,0.00,VWS V13.01,2013-05-19 19:00:00,
2013-05-20 05:15:00,72.5,67.7,29.95,SE,135,0.6,2.5,85,0.00,,BKN040,0.00,VWS V13.01,2013-05-19 19:15:00,
2013-05-20 05:30:00,72.0,67.2,29.95,SE,135,0.6,3.8,85,0.00,,BKN040,0.00,VWS V13.01,2013-05-19 19:30:00,
2013-05-20 05:45:00,71.9,66.8,29.95,SE,135,1.9,3.8,84,0.00,,BKN040,0.00,VWS V13.01,2013-05-19 19:45:00,
2013-05-20 06:00:00,72.4,66.9,29.95,SE,135,1.9,5.0,83,0.00,,BKN040,0.00,VWS V13.01,2013-05-19 20:00:00,
2013-05-20 06:15:00,72.4,67.3,29.96,SE,135,0.6,1.3,84,0.00,,BKN040,0.00,VWS V13.01,2013-05-19 20:15:00,
2013-05-20 06:30:00,72.4,67.3,29.96,SE,135,0.6,2.5,84,0.00,,BKN040,0.00,VWS V13.01,2013-05-19 20:30:00,
2013-05-20 06:51:00,72.5,67.4,29.97,SE,135,1.9,3.8,84,0.00,,BKN040,0.00,VWS V13.01,2013-05-19 20:51:00,
2013-05-20 06:56:00,72.4,67.3,29.97,SE,127,1.9,3.8,84,0.00,,BKN040,0.00,VWS V13.01,2013-05-19 20:56:00,
2013-05-20 07:01:00,72.5,67.4,29.98,SE,137,1.9,3.8,84,0.00,,BKN050,0.00,VWS V13.01,2013-05-19 21:01:00,
2013-05-20 07:06:00,72.6,67.5,29.98,SE,134,1.9,3.8,84,0.00,,BKN050,0.00,VWS V13.01,2013-05-19 21:06:00,
2013-05-20 07:11:00,72.7,67.6,29.98,SE,142,1.9,3.8,84,0.00,,BKN050,0.00,VWS V13.01,2013-05-19 21:11:00,
2013-05-20 07:20:00,72.9,67.8,29.99,SE,137,0.6,3.8,84,0.00,,BKN050,0.00,VWS V13.01,2013-05-19 21:20:00,
2013-05-20 07:25:00,73.1,68.0,29.99,SE,144,0.6,3.8,84,0.00,,BKN050,0.00,VWS V13.01,2013-05-19 21:25:00,
2013-05-20 07:35:00,73.4,67.9,29.99,SE,133,0.6,3.8,83,0.00,,BKN050,0.00,VWS V13.01,2013-05-19 21:35:00,
2013-05-20 07:40:00,73.6,68.1,29.99,SE,138,3.1,3.8,83,0.00,,BKN050,0.00,VWS V13.01,2013-05-19 21:40:00,
2013-05-20 07:45:00,73.7,68.2,29.99,SE,134,0.6,3.8,83,0.00,,BKN050,0.00,VWS V13.01,2013-05-19 21:45:00,
2013-05-20 07:50:00,73.8,68.3,29.99,SE,134,0.6,3.8,83,0.00,,BKN050,0.00,VWS V13.01,2013-05-19 21:50:00,
2013-05-20 08:00:00,73.8,68.0,29.99,SE,135,0.6,3.8,82,0.00,,BKN050,0.00,VWS V13.01,2013-05-19 22:00:00,
2013-05-20 08:15:00,74.1,68.3,29.99,SE,135,0.6,3.8,82,0.00,,BKN050,0.00,VWS V13.01,2013-05-19 22:15:00,
2013-05-20 08:30:00,74.6,68.4,30.00,SE,135,0.6,3.8,81,0.00,,BKN050,0.00,VWS V13.01,2013-05-19 22:30:00,
2013-05-20 08:31:00,75.3,69.1,30.00,SSE,151,0.6,3.8,81,0.00,,BKN050,0.00,VWS V13.01,2013-05-19 22:31:00,
2013-05-20 08:45:00,75.7,68.4,30.00,SSE,158,1.9,6.2,78,0.00,,BKN050,0.00,VWS V13.01,2013-05-19 22:45:00,
2013-05-20 09:00:00,77.7,68.4,30.00,SE,135,3.1,10.0,73,0.00,,BKN050,0.00,VWS V13.01,2013-05-19 23:00:00,
2013-05-20 09:15:00,79.5,69.7,30.00,SE,135,3.1,8.7,72,0.00,,BKN050,0.00,VWS V13.01,2013-05-19 23:15:00,
2013-05-20 09:30:00,80.1,70.3,30.00,SE,135,4.4,13.7,72,0.00,,BKN050,0.00,VWS V13.01,2013-05-19 23:30:00,
2013-05-20 09:45:00,80.0,70.2,30.00,SE,135,4.4,11.3,72,0.00,,BKN050,0.00,VWS V13.01,2013-05-19 23:45:00,
2013-05-20 10:00:00,80.5,70.2,30.00,SE,135,4.4,13.7,71,0.00,,BKN050,0.00,VWS V13.01,2013-05-20 00:00:00,
2013-05-20 10:15:00,81.1,70.4,30.00,SE,135,5.6,13.7,70,0.00,,BKN050,0.00,VWS V13.01,2013-05-20 00:15:00,
2013-05-20 10:30:00,81.7,70.1,29.99,SE,135,4.4,11.3,68,0.00,,BKN050,0.00,VWS V13.01,2013-05-20 00:30:00,
2013-05-20 10:45:00,82.2,69.7,29.99,SE,135,4.4,12.5,66,0.00,,BKN050,0.00,VWS V13.01,2013-05-20 00:45:00,
2013-05-20 11:00:00,82.3,70.3,29.98,SE,135,4.4,12.5,67,0.00,,BKN050,0.00,VWS V13.01,2013-05-20 01:00:00,
2013-05-20 11:15:00,83.5,70.9,29.97,SE,135,4.4,12.5,66,0.00,,BKN050,0.00,VWS V13.01,2013-05-20 01:15:00,
2013-05-20 11:30:00,83.5,70.1,29.97,SE,135,4.4,10.0,64,0.00,,BKN050,0.00,VWS V13.01,2013-05-20 01:30:00,
2013-05-20 11:45:00,83.1,70.1,29.95,East,90,6.9,12.5,65,0.00,,BKN050,0.00,VWS V13.01,2013-05-20 01:45:00,
2013-05-20 12:00:00,82.6,70.5,29.95,East,90,6.9,16.3,67,0.00,,BKN050,0.00,VWS V13.01,2013-05-20 02:00:00,
2013-05-20 12:15:00,82.7,69.3,29.94,East,90,5.6,12.5,64,0.00,,BKN050,0.00,VWS V13.01,2013-05-20 02:15:00,
2013-05-20 12:30:00,82.6,70.1,29.93,East,90,6.9,15.0,66,0.00,,BKN050,0.00,VWS V13.01,2013-05-20 02:30:00,
2013-05-20 12:45:00,82.4,69.5,29.92,ESE,112,5.6,11.3,65,0.00,,BKN050,0.00,VWS V13.01,2013-05-20 02:45:00,
2013-05-20 13:00:00,83.3,70.3,29.92,ESE,112,5.6,12.5,65,0.00,,BKN050,0.00,VWS V13.01,2013-05-20 03:00:00,
2013-05-20 13:15:00,83.2,71.1,29.91,East,90,6.9,17.5,67,0.00,,BKN050,0.00,VWS V13.01,2013-05-20 03:15:00,
2013-05-20 13:30:00,82.4,71.6,29.91,East,90,6.9,15.0,70,0.00,,BKN050,0.00,VWS V13.01,2013-05-20 03:30:00,
2013-05-20 13:45:00,82.1,71.8,29.90,East,90,8.1,16.3,71,0.00,,BKN050,0.00,VWS V13.01,2013-05-20 03:45:00,
2013-05-20 14:00:00,82.0,71.7,29.90,East,90,6.9,15.0,71,0.00,,BKN050,0.00,VWS V13.01,2013-05-20 04:00:00,
2013-05-20 14:15:00,82.0,71.7,29.89,ESE,112,5.6,16.3,71,0.00,,BKN050,0.00,VWS V13.01,2013-05-20 04:15:00,
2013-05-20 14:30:00,81.1,71.6,29.89,ESE,112,5.6,13.7,73,0.00,,BKN050,0.00,VWS V13.01,2013-05-20 04:30:00,
2013-05-20 14:45:00,80.8,71.3,29.89,ESE,112,5.6,16.3,73,0.00,,BKN050,0.00,VWS V13.01,2013-05-20 04:45:00,
2013-05-20 15:00:00,80.7,71.2,29.89,SE,135,5.6,12.5,73,0.00,,BKN050,0.00,VWS V13.01,2013-05-20 05:00:00,
2013-05-20 15:15:00,80.5,71.5,29.89,SE,135,5.6,12.5,74,0.00,,BKN050,0.00,VWS V13.01,2013-05-20 05:15:00,
2013-05-20 15:30:00,80.8,71.3,29.89,SE,135,4.4,12.5,73,0.00,,BKN050,0.00,VWS V13.01,2013-05-20 05:30:00,
2013-05-20 15:45:00,80.6,71.6,29.89,SE,135,4.4,8.7,74,0.00,,BKN050,0.00,VWS V13.01,2013-05-20 05:45:00,
2013-05-20 16:00:00,80.3,71.7,29.89,SE,135,3.1,10.0,75,0.00,,BKN050,0.00,VWS V13.01,2013-05-20 06:00:00,
2013-05-20 16:15:00,80.7,71.2,29.89,SE,135,3.1,8.7,73,0.00,,BKN050,0.00,VWS V13.01,2013-05-20 06:15:00,
2013-05-20 16:30:00,81.1,71.6,29.89,SE,135,4.4,8.7,73,0.00,,BKN050,0.00,VWS V13.01,2013-05-20 06:30:00,
2013-05-20 16:45:00,80.3,71.7,29.90,SE,135,4.4,12.5,75,0.00,,BKN050,0.00,VWS V13.01,2013-05-20 06:45:00,
2013-05-20 17:00:00,79.7,71.5,29.91,SE,135,3.1,10.0,76,0.00,,BKN050,0.00,VWS V13.01,2013-05-20 07:00:00,
2013-05-20 17:15:00,79.3,71.1,29.91,SE,135,3.1,7.5,76,0.00,,BKN050,0.00,VWS V13.01,2013-05-20 07:15:00,
2013-05-20 17:30:00,78.8,71.0,29.91,SE,135,3.1,8.7,77,0.00,,BKN050,0.00,VWS V13.01,2013-05-20 07:30:00,
2013-05-20 17:45:00,78.3,70.9,29.90,SE,135,3.1,8.7,78,0.00,,BKN050,0.00,VWS V13.01,2013-05-20 07:45:00,
2013-05-20 18:00:00,77.6,70.9,29.91,SE,135,1.9,5.0,80,0.00,,BKN050,0.00,VWS V13.01,2013-05-20 08:00:00,
2013-05-20 18:15:00,76.7,70.4,29.91,SE,135,3.1,7.5,81,0.00,,BKN050,0.00,VWS V13.01,2013-05-20 08:15:00,
2013-05-20 18:30:00,76.3,70.1,29.91,SE,135,3.1,10.0,81,0.00,,BKN050,0.00,VWS V13.01,2013-05-20 08:30:00,
2013-05-20 18:45:00,76.2,69.9,29.91,SE,135,4.4,12.5,81,0.00,,BKN050,0.00,VWS V13.01,2013-05-20 08:45:00,
2013-05-20 19:00:00,76.0,70.1,29.92,SE,135,1.9,5.0,82,0.00,,BKN050,0.00,VWS V13.01,2013-05-20 09:00:00,
2013-05-20 19:15:00,75.7,70.2,29.92,SE,135,1.9,7.5,83,0.00,,BKN050,0.00,VWS V13.01,2013-05-20 09:15:00,
2013-05-20 19:30:00,75.6,70.1,29.93,SE,135,1.9,6.2,83,0.00,,BKN050,0.00,VWS V13.01,2013-05-20 09:30:00,
2013-05-20 19:45:00,75.6,70.1,29.93,SE,135,1.9,5.0,83,0.00,,BKN050,0.00,VWS V13.01,2013-05-20 09:45:00,
2013-05-20 20:00:00,75.4,70.2,29.93,SE,135,0.6,2.5,84,0.00,,BKN050,0.00,VWS V13.01,2013-05-20 10:00:00,
2013-05-20 20:15:00,74.9,70.1,29.93,SE,135,0.6,0.0,85,0.00,,BKN050,0.00,VWS V13.01,2013-05-20 10:15:00,
2013-05-20 20:30:00,74.8,70.0,29.94,SE,135,0.6,1.3,85,0.00,,BKN050,0.00,VWS V13.01,2013-05-20 10:30:00,
2013-05-20 20:45:00,74.9,70.1,29.94,SSE,158,0.6,1.3,85,0.00,,BKN050,0.00,VWS V13.01,2013-05-20 10:45:00,
2013-05-20 21:00:00,75.0,70.2,29.95,SSE,158,0.6,1.3,85,0.00,,BKN050,0.00,VWS V13.01,2013-05-20 11:00:00,
2013-05-20 21:15:00,75.1,69.9,29.95,SSE,158,0.6,2.5,84,0.00,,BKN050,0.00,VWS V13.01,2013-05-20 11:15:00,
2013-05-20 21:30:00,75.2,70.0,29.96,SSE,158,0.6,1.3,84,0.00,,BKN050,0.00,VWS V13.01,2013-05-20 11:30:00,
2013-05-20 21:45:00,75.3,70.1,29.96,SE,135,0.6,2.5,84,0.00,,BKN050,0.00,VWS V13.01,2013-05-20 11:45:00,
2013-05-20 22:00:00,75.4,70.2,29.96,SE,135,0.6,2.5,84,0.00,,BKN050,0.00,VWS V13.01,2013-05-20 12:00:00,
2013-05-20 22:15:00,75.5,70.0,29.96,SE,135,0.6,1.3,83,0.00,,BKN050,0.00,VWS V13.01,2013-05-20 12:15:00,
2013-05-20 22:30:00,75.5,70.0,29.96,SE,135,0.6,0.0,83,0.00,,BKN050,0.00,VWS V13.01,2013-05-20 12:30:00,
2013-05-20 22:45:00,75.4,70.2,29.95,SE,135,0.6,0.0,84,0.00,,BKN050,0.00,VWS V13.01,2013-05-20 12:45:00,
2013-05-20 23:00:00,74.9,69.7,29.95,SE,135,0.6,0.0,84,0.00,,BKN050,0.00,VWS V13.01,2013-05-20 13:00:00,
2013-05-20 23:15:00,75.1,69.9,29.95,SE,135,0.6,0.0,84,0.00,,BKN050,0.00,VWS V13.01,2013-05-20 13:15:00,
2013-05-20 23:30:00,75.2,70.0,29.95,SE,135,0.6,2.5,84,0.00,,BKN050,0.00,VWS V13.01,2013-05-20 13:30:00,
2013-05-20 23:45:00,75.4,70.6,29.95,SE,135,1.9,3.8,85,0.00,,BKN050,0.00,VWS V13.01,2013-05-20 13:45:00,